Terminal Aerodrome Forecast
Issued by NWS Nashville, TN

Home | Current Version | Previous Version | Text Only | Print | Product List | Glossary On
Versions: 1 2 3 4 5 6 7 8 9 10 11 12 13 14 15 16 17 18 19
000
FTUS44 KOHX 222300
TAFBNA
TAF
KBNA 222329Z 2300/2324 15010G18KT P6SM VCSH BKN010 OVC015
     FM230500 17012KT 4SM -SHRA BR OVC009
     FM231300 17007KT 2SM -SHRA BR OVC007=

USA.gov is the U.S. government's official web portal to all federal, state and local government web resources and services.